Time;durP1;ratioP1;P1;durP2;ratioP2;P2;SDS_P1;SDS_P2;PMS_P1;PMS_P2;Temp;Humidity;BMP_temperature;BMP_pressure;BME280_temperature;BME280_humidity;BME280_pressure;Samples;Min_cycle;Max_cycle;Signal;HPM_P1;HPM_P2
2023/06/16 00:00:43;;;;;;;5.57;3.47;;;;;;;17.85;74.59;100058.38;5048839;28;20056;-72
2023/06/16 00:03:09;;;;;;;7.15;3.92;;;;;;;17.84;75.67;100062.00;5048791;28;20104;-72
2023/06/16 00:05:35;;;;;;;6.60;3.72;;;;;;;17.80;75.71;100063.16;5048715;28;20029;-72
2023/06/16 00:08:03;;;;;;;8.40;4.03;;;;;;;17.80;76.00;100059.59;5053033;28;20040;-71
2023/06/16 00:10:29;;;;;;;7.30;4.63;;;;;;;17.77;75.78;100059.78;5052542;28;20143;-72
2023/06/16 00:12:55;;;;;;;6.57;4.10;;;;;;;17.76;76.27;100053.53;5052521;28;20071;-71
2023/06/16 00:15:21;;;;;;;9.55;4.50;;;;;;;17.76;75.89;100053.53;5052704;28;20706;-71
2023/06/16 00:17:46;;;;;;;6.90;4.32;;;;;;;17.75;75.80;100053.63;5049481;28;20040;-72
2023/06/16 00:20:19;;;;;;;6.70;4.32;;;;;;;17.75;76.04;100057.19;5016447;28;20028;-72
2023/06/16 00:22:47;;;;;;;6.07;3.78;;;;;;;17.70;76.04;100055.75;5037363;28;20029;-72
2023/06/16 00:25:17;;;;;;;8.10;4.28;;;;;;;17.67;76.14;100053.25;5052498;28;20028;-71
2023/06/16 00:27:43;;;;;;;7.60;4.50;;;;;;;17.63;76.17;100049.88;5053460;28;20025;-72
2023/06/16 00:30:09;;;;;;;8.73;4.07;;;;;;;17.61;76.17;100048.25;5052401;28;20497;-71
2023/06/16 00:32:34;;;;;;;7.35;3.80;;;;;;;17.55;76.64;100032.44;5052385;28;20060;-71
2023/06/16 00:35:00;;;;;;;6.15;4.28;;;;;;;17.58;76.40;100046.59;5032272;28;20116;-71
2023/06/16 00:37:25;;;;;;;8.35;4.28;;;;;;;17.48;76.64;100052.63;5031019;28;20440;-71
2023/06/16 00:39:51;;;;;;;6.63;4.30;;;;;;;17.34;76.79;100045.34;5052028;28;20029;-71
2023/06/16 00:42:16;;;;;;;6.32;3.92;;;;;;;17.35;77.64;100044.38;5051922;28;20354;-71
2023/06/16 00:44:42;;;;;;;6.50;4.57;;;;;;;17.32;77.94;100049.06;5052231;28;20028;-71
2023/06/16 00:47:07;;;;;;;6.32;4.05;;;;;;;17.26;78.01;100036.88;5052075;28;20031;-71
2023/06/16 00:49:33;;;;;;;7.13;4.90;;;;;;;17.35;77.65;100054.28;5052744;28;20060;-71
2023/06/16 00:52:01;;;;;;;6.85;3.95;;;;;;;17.34;77.76;100056.09;5034553;28;20040;-71
2023/06/16 00:54:27;;;;;;;8.25;3.97;;;;;;;17.29;77.88;100057.31;5052450;28;20477;-70
2023/06/16 00:56:52;;;;;;;5.63;3.88;;;;;;;17.21;78.39;100044.34;5036677;28;20037;-71
2023/06/16 00:59:22;;;;;;;6.47;4.18;;;;;;;17.14;78.86;100045.66;5052367;28;20455;-70
2023/06/16 01:01:48;;;;;;;6.07;4.20;;;;;;;17.15;79.07;100055.44;4631084;28;20053;-70
2023/06/16 01:04:13;;;;;;;6.72;4.50;;;;;;;17.14;79.34;100053.72;5050921;28;20033;-70
2023/06/16 01:06:43;;;;;;;9.38;4.40;;;;;;;17.12;78.97;100055.63;5050208;28;20068;-71
2023/06/16 01:09:33;;;;;;;6.95;4.18;;;;;;;17.06;79.46;100053.31;5051160;28;20074;-70
2023/06/16 01:12:24;;;;;;;7.30;4.43;;;;;;;17.00;79.75;100051.84;5050087;28;20055;-70
2023/06/16 01:15:01;;;;;;;6.10;4.13;;;;;;;16.96;79.82;100058.34;5050126;28;20036;-69
2023/06/16 01:17:30;;;;;;;8.55;4.25;;;;;;;16.91;79.89;100057.75;5050586;28;20039;-69
2023/06/16 01:20:08;;;;;;;10.15;4.78;;;;;;;16.90;80.96;100064.06;5048676;28;20028;-70
2023/06/16 01:22:52;;;;;;;6.07;4.03;;;;;;;16.87;80.68;100064.25;5049969;28;20041;-70
2023/06/16 01:25:22;;;;;;;7.57;5.10;;;;;;;16.77;81.25;100059.50;5050179;28;20519;-70
2023/06/16 01:27:52;;;;;;;7.13;4.20;;;;;;;16.76;82.03;100064.00;5050215;28;20021;-69
2023/06/16 01:30:21;;;;;;;7.68;4.65;;;;;;;16.73;82.36;100069.56;5048094;28;20025;-70
2023/06/16 01:32:51;;;;;;;9.07;4.32;;;;;;;16.75;82.00;100062.25;5048923;28;20037;-70
2023/06/16 01:35:18;;;;;;;6.88;4.50;;;;;;;16.71;82.27;100068.78;5049380;28;20119;-70
2023/06/16 01:37:44;;;;;;;7.88;4.50;;;;;;;16.72;82.17;100058.91;5048925;28;20115;-70
2023/06/16 01:40:11;;;;;;;8.35;4.70;;;;;;;16.74;82.59;100062.34;5049840;28;20060;-71
2023/06/16 01:42:38;;;;;;;6.40;4.55;;;;;;;16.71;83.23;100071.44;5029064;28;20730;-69
2023/06/16 01:45:04;;;;;;;8.52;4.95;;;;;;;16.72;82.98;100059.75;5030607;28;20105;-69
2023/06/16 01:47:30;;;;;;;7.47;4.82;;;;;;;16.74;82.36;100059.66;5048450;28;20370;-69
2023/06/16 01:49:56;;;;;;;7.00;4.28;;;;;;;16.73;82.16;100060.63;5050276;28;20048;-69
2023/06/16 01:52:22;;;;;;;7.15;4.25;;;;;;;16.71;82.27;100055.34;5050436;28;20108;-69
2023/06/16 01:54:47;;;;;;;6.75;5.20;;;;;;;16.73;82.50;100066.88;5049804;28;20121;-69
2023/06/16 01:57:13;;;;;;;7.00;4.75;;;;;;;16.74;82.17;100067.72;5050199;28;20405;-69
2023/06/16 01:59:38;;;;;;;7.85;5.18;;;;;;;16.68;83.03;100046.59;5049816;28;20021;-69
2023/06/16 02:02:15;;;;;;;7.07;4.73;;;;;;;16.75;82.68;100064.09;5010412;28;1146664;-69
2023/06/16 02:04:45;;;;;;;9.27;4.75;;;;;;;16.74;82.62;100065.91;5051386;28;20119;-69
2023/06/16 02:07:21;;;;;;;7.20;4.70;;;;;;;16.74;82.72;100073.09;5051380;28;20064;-69
2023/06/16 02:09:49;;;;;;;8.30;5.20;;;;;;;16.73;83.06;100066.00;5049884;28;20040;-69
2023/06/16 02:12:15;;;;;;;8.43;5.07;;;;;;;16.70;82.41;100061.69;5050896;28;20392;-69
2023/06/16 02:14:43;;;;;;;8.02;4.75;;;;;;;16.69;83.55;100064.41;5051268;28;20837;-69
2023/06/16 02:17:09;;;;;;;6.80;4.68;;;;;;;16.75;82.64;100064.94;5050108;28;20442;-69
2023/06/16 02:19:38;;;;;;;8.75;5.32;;;;;;;16.86;82.71;100058.97;5050907;28;20040;-69
2023/06/16 02:22:05;;;;;;;8.95;5.13;;;;;;;16.94;82.33;100072.81;5049629;28;20045;-69
2023/06/16 02:24:31;;;;;;;8.52;4.93;;;;;;;16.91;82.62;100068.50;5049437;28;20041;-69
2023/06/16 02:26:56;;;;;;;6.70;4.47;;;;;;;16.90;82.66;100073.97;5031547;28;20044;-69
2023/06/16 02:29:22;;;;;;;10.95;5.03;;;;;;;16.76;82.68;100063.13;5048348;28;20406;-69
2023/06/16 02:31:48;;;;;;;7.43;5.05;;;;;;;16.75;82.65;100081.06;5032061;28;20024;-69
2023/06/16 02:34:15;;;;;;;7.10;4.55;;;;;;;16.67;83.46;100074.41;5048535;28;20031;-69
2023/06/16 02:36:40;;;;;;;7.07;4.90;;;;;;;16.62;83.29;100073.81;5048034;28;20037;-68
2023/06/16 02:39:06;;;;;;;7.90;4.90;;;;;;;16.56;83.16;100076.81;5049204;28;20095;-68
2023/06/16 02:41:33;;;;;;;7.25;5.07;;;;;;;16.50;84.06;100077.16;5049006;28;20036;-68
2023/06/16 02:43:59;;;;;;;6.68;5.18;;;;;;;16.45;83.63;100063.09;5048808;28;20087;-68
2023/06/16 02:46:25;;;;;;;7.70;4.85;;;;;;;16.45;84.17;100069.38;5020922;28;20501;-69
2023/06/16 02:48:50;;;;;;;10.73;5.60;;;;;;;16.40;84.12;100076.78;5048434;28;20013;-69
2023/06/16 02:51:16;;;;;;;8.63;5.68;;;;;;;16.33;85.03;100071.81;5050170;28;20037;-69
2023/06/16 02:53:41;;;;;;;9.45;5.63;;;;;;;16.30;85.21;100077.34;5032190;28;20028;-69
2023/06/16 02:56:10;;;;;;;8.88;5.20;;;;;;;16.16;85.11;100066.53;5050206;28;20032;-69
2023/06/16 02:58:35;;;;;;;6.88;4.75;;;;;;;16.13;85.30;100075.59;5048888;28;20047;-70
2023/06/16 03:01:01;;;;;;;7.22;5.25;;;;;;;16.05;85.96;100074.25;5050009;28;20492;-69
2023/06/16 03:03:30;;;;;;;6.28;4.78;;;;;;;16.09;86.44;100083.91;5031462;28;20032;-69
2023/06/16 03:05:57;;;;;;;10.52;5.50;;;;;;;15.99;86.45;100069.25;5049089;28;20086;-69
2023/06/16 03:08:22;;;;;;;9.80;5.55;;;;;;;15.99;87.11;100085.34;5050204;28;20024;-68
2023/06/16 03:10:48;;;;;;;8.75;5.93;;;;;;;15.91;87.96;100076.84;5065413;28;20496;-69
2023/06/16 03:13:13;;;;;;;10.48;5.72;;;;;;;15.87;87.21;100073.44;5049548;28;20555;-69
2023/06/16 03:15:39;;;;;;;7.38;5.43;;;;;;;15.81;88.04;100066.56;5049229;28;20052;-69
2023/06/16 03:18:05;;;;;;;8.20;5.47;;;;;;;15.93;88.92;100070.41;5049121;28;20471;-69
2023/06/16 03:20:31;;;;;;;8.85;5.63;;;;;;;16.00;88.55;100071.84;5050083;28;20028;-69
2023/06/16 03:22:57;;;;;;;8.73;5.55;;;;;;;16.04;88.10;100068.06;5049269;28;20092;-69
2023/06/16 03:25:22;;;;;;;9.70;5.57;;;;;;;16.08;88.09;100079.50;5049515;28;20182;-69
2023/06/16 03:27:48;;;;;;;9.00;5.63;;;;;;;16.06;88.10;100081.38;5045488;28;20106;-69
2023/06/16 03:30:14;;;;;;;7.40;5.20;;;;;;;15.95;87.07;100079.25;5047085;28;20477;-70
2023/06/16 03:32:39;;;;;;;7.90;5.30;;;;;;;15.83;87.93;100086.16;5048222;28;20031;-69
2023/06/16 03:35:06;;;;;;;8.35;5.30;;;;;;;15.71;87.03;100072.53;5047167;28;20020;-69
2023/06/16 03:37:32;;;;;;;7.22;5.10;;;;;;;15.71;87.29;100084.13;5047008;28;20599;-69
2023/06/16 03:40:05;;;;;;;7.35;5.15;;;;;;;15.67;87.55;100078.97;5047257;28;20017;-68
2023/06/16 03:42:31;;;;;;;10.30;5.28;;;;;;;15.70;86.88;100090.41;5046779;28;20032;-68
2023/06/16 03:44:56;;;;;;;8.45;5.22;;;;;;;15.61;88.34;100082.88;5063465;28;20044;-67
2023/06/16 03:47:23;;;;;;;8.38;5.10;;;;;;;15.69;87.97;100090.50;5044043;28;20021;-67
2023/06/16 03:49:48;;;;;;;10.40;5.95;;;;;;;15.66;89.00;100091.53;5048278;28;20059;-68
2023/06/16 03:52:14;;;;;;;9.95;5.68;;;;;;;15.67;88.49;100104.00;5049704;28;20060;-68
2023/06/16 03:54:39;;;;;;;10.20;5.43;;;;;;;15.69;88.74;100099.44;5048364;28;20105;-68
2023/06/16 03:57:05;;;;;;;9.23;5.40;;;;;;;15.71;89.39;100100.22;5049434;28;20077;-68
2023/06/16 03:59:31;;;;;;;8.18;5.80;;;;;;;15.74;88.91;100110.78;5049058;28;20361;-68
2023/06/16 04:01:57;;;;;;;9.88;6.15;;;;;;;15.75;89.08;100108.94;5030854;28;20128;-70
2023/06/16 04:04:25;;;;;;;22.85;7.75;;;;;;;15.80;89.80;100104.22;5048071;28;20040;-69
2023/06/16 04:06:51;;;;;;;10.93;6.32;;;;;;;15.76;89.09;100108.03;5049316;28;20066;-69
2023/06/16 04:09:16;;;;;;;8.93;6.45;;;;;;;15.80;89.57;100113.13;5048263;28;20305;-69
2023/06/16 04:11:42;;;;;;;10.07;6.10;;;;;;;15.85;89.89;100120.09;5031091;28;20074;-69
2023/06/16 04:14:09;;;;;;;10.85;6.60;;;;;;;15.83;89.54;100106.75;5048766;28;20041;-69
2023/06/16 04:16:35;;;;;;;8.23;6.32;;;;;;;15.93;89.45;100113.34;5049098;28;20736;-69
2023/06/16 04:19:02;;;;;;;8.57;5.72;;;;;;;16.02;88.83;100115.56;5048916;28;20044;-69
2023/06/16 04:21:28;;;;;;;10.00;6.22;;;;;;;16.00;88.96;100112.09;5049229;28;20053;-69
2023/06/16 04:23:54;;;;;;;12.57;6.32;;;;;;;15.98;89.53;100110.44;5049101;28;20114;-69
2023/06/16 04:26:22;;;;;;;11.48;6.05;;;;;;;16.01;88.99;100115.63;5047783;28;20033;-68
2023/06/16 04:28:53;;;;;;;9.52;6.72;;;;;;;16.02;90.00;100122.72;5048790;28;20041;-69
2023/06/16 04:31:21;;;;;;;13.20;6.68;;;;;;;15.99;89.50;100112.16;5030078;28;20033;-69
2023/06/16 04:33:46;;;;;;;9.82;6.28;;;;;;;16.07;89.15;100113.50;5048984;28;20020;-69
2023/06/16 04:36:12;;;;;;;10.95;6.13;;;;;;;16.18;89.81;100123.63;5048458;28;20517;-69
2023/06/16 04:38:37;;;;;;;9.60;6.30;;;;;;;16.27;89.70;100123.16;5049078;28;20518;-69
2023/06/16 04:41:04;;;;;;;9.93;6.10;;;;;;;16.32;89.51;100119.28;5040326;28;20041;-69
2023/06/16 04:43:29;;;;;;;10.80;6.60;;;;;;;16.40;89.56;100118.84;5041213;28;20075;-69
2023/06/16 04:45:55;;;;;;;8.25;5.95;;;;;;;16.56;88.23;100123.34;5048879;28;20108;-69
2023/06/16 04:48:21;;;;;;;13.32;6.10;;;;;;;16.69;88.25;100123.50;5048680;28;20063;-69
2023/06/16 04:50:46;;;;;;;9.85;6.28;;;;;;;16.83;88.11;100124.50;5047290;28;20029;-69
2023/06/16 04:53:12;;;;;;;11.60;5.80;;;;;;;16.93;87.86;100114.94;5051549;28;20036;-69
2023/06/16 04:55:37;;;;;;;8.82;5.47;;;;;;;17.05;87.03;100114.25;5051723;28;20110;-69
2023/06/16 04:58:03;;;;;;;10.00;6.55;;;;;;;17.24;86.78;100124.81;5031138;28;20033;-69
2023/06/16 05:00:30;;;;;;;9.52;6.18;;;;;;;17.40;85.73;100119.38;5034432;28;20036;-69
2023/06/16 05:02:56;;;;;;;10.00;6.22;;;;;;;17.53;85.53;100129.38;5034901;28;20058;-69
2023/06/16 05:05:22;;;;;;;11.82;5.75;;;;;;;17.60;85.31;100125.38;5028620;28;20029;-69
2023/06/16 05:07:47;;;;;;;9.93;6.10;;;;;;;17.74;84.69;100128.09;5029484;28;20147;-69
2023/06/16 05:10:13;;;;;;;9.38;5.55;;;;;;;17.84;84.46;100129.28;5030497;28;20087;-69
2023/06/16 05:12:39;;;;;;;10.45;5.53;;;;;;;17.89;83.18;100124.47;5031207;28;20440;-69
2023/06/16 05:15:05;;;;;;;8.50;5.35;;;;;;;18.06;82.82;100118.94;5031103;28;20045;-69
2023/06/16 05:17:30;;;;;;;9.55;5.70;;;;;;;18.30;81.18;100130.88;5030424;28;20060;-69
2023/06/16 05:19:56;;;;;;;7.68;5.22;;;;;;;18.44;78.93;100126.50;5030977;28;20442;-69
2023/06/16 05:22:23;;;;;;;7.82;5.93;;;;;;;18.53;78.12;100123.22;5032551;28;20029;-69
2023/06/16 05:24:57;;;;;;;10.45;6.70;;;;;;;18.65;79.16;100125.16;5032448;28;20029;-69
2023/06/16 05:27:26;;;;;;;9.10;6.05;;;;;;;18.73;78.93;100133.63;5030623;28;20041;-69
2023/06/16 05:29:52;;;;;;;12.05;6.07;;;;;;;18.85;78.92;100127.41;5021016;28;20431;-69
2023/06/16 05:32:19;;;;;;;8.57;5.85;;;;;;;18.92;75.66;100123.38;5031401;28;20025;-69
2023/06/16 05:34:46;;;;;;;10.20;6.60;;;;;;;19.03;75.09;100124.41;5031961;28;20037;-69
2023/06/16 05:37:15;;;;;;;9.07;6.03;;;;;;;19.13;74.80;100121.97;5013465;28;20064;-69
2023/06/16 05:39:43;;;;;;;11.23;5.80;;;;;;;19.34;74.40;100129.53;5031551;28;20061;-69
2023/06/16 05:42:10;;;;;;;13.50;6.80;;;;;;;19.48;73.97;100125.91;5031118;28;20438;-69
2023/06/16 05:44:36;;;;;;;13.52;5.82;;;;;;;19.61;73.12;100130.41;5043817;28;20090;-68
2023/06/16 05:47:02;;;;;;;9.60;5.97;;;;;;;19.77;72.07;100123.97;5037007;28;20482;-69
2023/06/16 05:49:27;;;;;;;15.45;5.68;;;;;;;19.88;71.62;100133.06;5030843;28;20489;-69
2023/06/16 05:51:53;;;;;;;9.95;5.60;;;;;;;19.98;71.13;100131.44;5031407;28;20021;-68
2023/06/16 05:54:19;;;;;;;11.60;6.55;;;;;;;20.11;70.25;100132.31;5013028;28;20025;-68
2023/06/16 05:56:44;;;;;;;11.05;6.18;;;;;;;20.27;69.84;100135.72;5030953;28;20596;-68
2023/06/16 05:59:10;;;;;;;9.70;5.78;;;;;;;20.41;68.98;100142.84;5030288;28;20042;-68
2023/06/16 06:01:35;;;;;;;16.70;6.00;;;;;;;20.35;68.90;100121.66;5028016;28;20081;-68
2023/06/16 06:04:00;;;;;;;10.32;6.60;;;;;;;20.67;69.09;100145.41;5044368;28;20024;-69
2023/06/16 06:06:27;;;;;;;10.63;5.85;;;;;;;20.79;68.47;100144.53;5040334;28;20030;-69
2023/06/16 06:08:53;;;;;;;11.32;5.93;;;;;;;20.95;67.23;100147.00;5036755;28;20048;-69
2023/06/16 06:11:18;;;;;;;8.98;5.82;;;;;;;21.06;66.03;100151.63;5050980;28;20068;-69
2023/06/16 06:13:43;;;;;;;9.50;6.25;;;;;;;21.18;66.28;100156.16;5033173;28;20048;-68
2023/06/16 06:16:09;;;;;;;8.88;5.97;;;;;;;21.28;65.55;100147.25;5033221;28;20033;-72
2023/06/16 06:18:34;;;;;;;8.88;6.53;;;;;;;21.31;65.74;100151.56;5051024;28;20133;-68
2023/06/16 06:21:00;;;;;;;10.20;6.15;;;;;;;21.49;64.52;100161.00;5050276;28;20090;-64
2023/06/16 06:23:26;;;;;;;8.80;5.20;;;;;;;21.63;63.88;100167.09;5050589;28;20025;-64
2023/06/16 06:25:51;;;;;;;11.98;6.72;;;;;;;21.81;63.17;100164.91;5050703;28;20095;-65
2023/06/16 06:28:17;;;;;;;9.77;6.25;;;;;;;22.00;61.58;100167.91;5049513;28;20456;-66
2023/06/16 06:30:42;;;;;;;9.60;5.93;;;;;;;21.99;61.03;100160.78;5042410;28;20037;-69
2023/06/16 06:33:07;;;;;;;8.13;5.43;;;;;;;22.09;61.51;100161.81;5028927;28;20384;-69
2023/06/16 06:35:33;;;;;;;7.88;5.00;;;;;;;22.30;60.38;100170.09;5029082;28;20045;-71
2023/06/16 06:37:58;;;;;;;12.07;6.25;;;;;;;22.47;60.39;100165.06;5031116;28;20128;-70
2023/06/16 06:40:24;;;;;;;10.10;5.55;;;;;;;22.71;60.10;100171.31;5038164;28;20018;-69
2023/06/16 06:42:49;;;;;;;7.03;5.03;;;;;;;22.89;59.61;100175.25;5044237;28;20040;-68
2023/06/16 06:45:15;;;;;;;7.70;5.20;;;;;;;23.06;57.97;100174.72;5045656;28;20036;-68
2023/06/16 06:47:40;;;;;;;8.18;4.85;;;;;;;23.07;55.72;100184.63;5051346;28;20028;-69
2023/06/16 06:50:06;;;;;;;8.10;4.78;;;;;;;23.26;54.90;100193.00;5050216;28;20082;-64
2023/06/16 06:52:31;;;;;;;7.82;4.50;;;;;;;23.37;53.52;100186.69;5049626;28;20029;-64
2023/06/16 06:54:57;;;;;;;6.55;4.20;;;;;;;23.55;51.90;100195.16;5049807;28;20036;-64
2023/06/16 06:57:23;;;;;;;9.65;4.78;;;;;;;23.63;50.58;100198.09;5050245;28;20090;-64
2023/06/16 06:59:49;;;;;;;7.80;4.57;;;;;;;23.73;51.36;100199.94;5048484;28;20175;-64
2023/06/16 07:02:16;;;;;;;8.55;4.72;;;;;;;24.01;49.80;100198.50;5032250;28;20128;-64
2023/06/16 07:04:42;;;;;;;7.65;4.55;;;;;;;24.23;51.58;100201.13;5030017;28;20393;-64
2023/06/16 07:07:08;;;;;;;7.43;4.20;;;;;;;24.37;50.67;100207.09;5046347;28;20479;-68
2023/06/16 07:09:34;;;;;;;6.53;4.30;;;;;;;24.55;48.28;100196.47;5056831;28;20127;-70
2023/06/16 07:12:00;;;;;;;8.18;4.40;;;;;;;24.73;47.80;100200.31;5053808;28;20024;-65
2023/06/16 07:14:26;;;;;;;6.15;4.47;;;;;;;24.88;48.86;100203.56;5048655;28;20590;-64
2023/06/16 07:16:52;;;;;;;6.93;4.28;;;;;;;24.93;49.01;100193.13;5049667;28;20021;-67
2023/06/16 07:19:17;;;;;;;6.25;4.40;;;;;;;25.04;49.47;100202.06;5045110;28;20047;-68
2023/06/16 07:21:43;;;;;;;7.35;4.03;;;;;;;25.27;47.86;100198.13;5030850;28;20045;-67
2023/06/16 07:24:08;;;;;;;7.85;4.50;;;;;;;25.48;47.81;100196.25;5047487;28;20025;-62
2023/06/16 07:26:34;;;;;;;6.90;4.10;;;;;;;25.54;47.09;100216.59;5049298;28;20040;-61
2023/06/16 07:29:00;;;;;;;7.75;4.05;;;;;;;25.63;46.70;100203.00;5037020;28;20033;-61
2023/06/16 07:31:27;;;;;;;8.65;5.18;;;;;;;25.67;45.22;100206.28;5039279;28;20626;-61
2023/06/16 07:33:52;;;;;;;10.13;5.93;;;;;;;25.76;45.33;100205.47;5046328;28;20033;-61
2023/06/16 07:36:17;;;;;;;6.70;3.92;;;;;;;25.99;44.79;100215.09;5040471;28;20040;-61
2023/06/16 07:38:43;;;;;;;7.45;3.45;;;;;;;26.37;45.55;100206.09;5048169;28;20560;-61
2023/06/16 07:41:08;;;;;;;8.65;4.05;;;;;;;26.61;43.62;100214.66;5047665;28;20166;-61
2023/06/16 07:43:35;;;;;;;13.35;4.40;;;;;;;26.83;43.16;100211.63;5047997;28;20032;-62
2023/06/16 07:46:01;;;;;;;9.98;4.25;;;;;;;26.96;43.06;100223.94;5048420;28;20045;-61
2023/06/16 07:48:26;;;;;;;12.57;4.88;;;;;;;27.09;41.82;100226.34;5046487;28;20033;-61
2023/06/16 07:50:53;;;;;;;8.32;4.00;;;;;;;27.14;41.59;100224.00;5047212;28;20025;-61
2023/06/16 07:53:19;;;;;;;8.50;4.00;;;;;;;27.61;41.73;100220.19;5048464;28;20028;-62
2023/06/16 07:55:45;;;;;;;8.45;3.95;;;;;;;28.06;41.44;100229.28;5048282;28;20044;-62
2023/06/16 07:58:10;;;;;;;9.80;3.70;;;;;;;28.34;38.95;100221.84;5049026;28;20068;-61
2023/06/16 08:00:36;;;;;;;7.05;3.38;;;;;;;28.64;39.29;100223.31;5048012;28;20016;-61
2023/06/16 08:03:01;;;;;;;9.88;3.60;;;;;;;28.71;38.65;100224.41;5048217;28;20048;-61
2023/06/16 08:05:27;;;;;;;6.85;3.60;;;;;;;28.84;37.27;100225.72;5048038;28;20441;-61
2023/06/16 08:07:52;;;;;;;6.30;3.83;;;;;;;29.12;35.96;100223.69;5047831;28;20060;-61
2023/06/16 08:10:20;;;;;;;6.97;3.67;;;;;;;29.36;36.42;100219.19;5048502;28;20021;-61
2023/06/16 08:12:46;;;;;;;7.82;4.03;;;;;;;29.28;35.75;100223.75;5047550;28;20044;-61
2023/06/16 08:15:12;;;;;;;5.97;3.90;;;;;;;29.47;35.40;100212.56;5041905;28;20132;-61
2023/06/16 08:17:37;;;;;;;6.80;3.92;;;;;;;29.78;36.39;100202.75;5048275;28;20497;-61
2023/06/16 08:20:06;;;;;;;5.95;3.55;;;;;;;29.81;35.53;100193.31;5047000;28;20037;-61
2023/06/16 08:22:32;;;;;;;7.72;4.20;;;;;;;30.25;35.58;100201.13;5047727;28;20449;-61
2023/06/16 08:24:57;;;;;;;5.90;3.70;;;;;;;30.21;35.47;100196.13;5047391;28;20040;-61
2023/06/16 08:27:22;;;;;;;5.80;3.33;;;;;;;30.32;34.51;100199.44;5047295;28;20024;-61
2023/06/16 08:29:50;;;;;;;8.07;3.63;;;;;;;30.04;34.53;100206.22;5051994;28;20119;-61
2023/06/16 08:32:15;;;;;;;7.70;3.42;;;;;;;29.97;35.59;100198.84;5052005;28;20032;-61
2023/06/16 08:34:41;;;;;;;7.40;3.13;;;;;;;30.40;35.01;100204.91;5050982;28;20064;-60
2023/06/16 08:37:07;;;;;;;10.52;3.75;;;;;;;30.33;34.33;100195.63;5051998;28;20055;-61
2023/06/16 08:39:32;;;;;;;5.25;3.13;;;;;;;30.81;34.10;100203.88;5051035;28;20033;-61
2023/06/16 08:41:59;;;;;;;7.15;3.13;;;;;;;31.10;33.89;100199.69;5051611;28;20044;-61
2023/06/16 08:44:26;;;;;;;6.05;3.30;;;;;;;31.18;34.29;100196.91;5051312;28;20049;-61
2023/06/16 08:46:52;;;;;;;5.10;3.00;;;;;;;31.52;32.94;100200.25;5046877;28;20034;-61
2023/06/16 08:49:18;;;;;;;5.80;3.25;;;;;;;31.64;31.76;100193.31;5031353;28;20032;-61
2023/06/16 08:51:48;;;;;;;6.95;3.05;;;;;;;31.07;31.25;100194.56;5044385;28;20119;-61
2023/06/16 08:54:14;;;;;;;6.55;3.13;;;;;;;30.82;32.22;100191.84;5051747;28;20043;-61
2023/06/16 08:56:42;;;;;;;6.25;3.45;;;;;;;31.30;32.80;100195.50;5050953;28;20032;-61
2023/06/16 08:59:08;;;;;;;8.45;3.17;;;;;;;31.85;33.36;100197.19;5051612;28;20128;-61
2023/06/16 09:01:34;;;;;;;10.02;3.00;;;;;;;31.74;31.94;100193.94;5051498;28;20477;-62
2023/06/16 09:04:00;;;;;;;5.95;3.00;;;;;;;31.94;32.30;100195.25;5052119;28;20029;-61
2023/06/16 09:06:25;;;;;;;9.80;3.30;;;;;;;31.66;31.29;100194.88;5050353;28;20037;-61
2023/06/16 09:08:53;;;;;;;8.15;3.22;;;;;;;31.97;32.01;100195.75;5050205;28;20518;-60
2023/06/16 09:11:24;;;;;;;10.98;3.30;;;;;;;32.25;30.57;100185.03;5034996;28;20021;-60
2023/06/16 09:13:51;;;;;;;7.07;2.58;;;;;;;32.74;32.53;100193.72;5037517;28;20132;-61
2023/06/16 09:16:17;;;;;;;5.00;2.60;;;;;;;32.69;31.66;100180.53;5050892;28;20028;-61
2023/06/16 09:18:44;;;;;;;6.55;3.13;;;;;;;32.94;29.81;100190.28;5042773;28;20051;-61
2023/06/16 09:21:11;;;;;;;7.38;3.97;;;;;;;33.14;28.95;100188.69;5044744;28;20040;-62
2023/06/16 09:23:38;;;;;;;11.50;3.03;;;;;;;32.91;27.34;100190.69;5030932;28;20440;-62
2023/06/16 09:26:15;;;;;;;7.85;2.65;;;;;;;32.87;29.21;100183.78;5038292;28;20029;-62
2023/06/16 09:28:40;;;;;;;6.47;2.90;;;;;;;32.57;29.36;100186.69;5050749;28;20091;-61
2023/06/16 09:31:12;;;;;;;6.47;2.10;;;;;;;32.97;30.39;100175.25;5050280;28;20465;-62
2023/06/16 09:33:38;;;;;;;7.70;2.40;;;;;;;32.99;27.75;100182.31;5042105;28;20115;-61
2023/06/16 09:36:04;;;;;;;5.20;2.30;;;;;;;32.95;27.73;100175.44;5038112;28;20787;-62
2023/06/16 09:38:37;;;;;;;4.80;2.22;;;;;;;33.33;28.30;100163.28;5050105;28;20028;-61
2023/06/16 09:41:18;;;;;;;6.85;2.83;;;;;;;33.72;27.43;100173.13;5047909;28;20447;-62
2023/06/16 09:43:44;;;;;;;5.45;2.30;;;;;;;33.65;27.39;100166.69;5047195;28;20522;-61
2023/06/16 09:46:14;;;;;;;5.85;2.45;;;;;;;33.69;25.55;100170.78;5050951;28;20082;-61
2023/06/16 09:48:50;;;;;;;4.03;2.00;;;;;;;33.76;25.23;100164.28;5046437;28;20060;-62
2023/06/16 09:51:23;;;;;;;5.50;2.20;;;;;;;33.64;24.83;100164.97;5036816;28;20028;-62
2023/06/16 09:53:49;;;;;;;4.00;2.60;;;;;;;33.47;26.43;100164.34;5048015;28;20028;-61
2023/06/16 09:56:16;;;;;;;5.82;2.28;;;;;;;33.38;27.14;100158.03;5047703;28;20651;-62
2023/06/16 09:58:43;;;;;;;4.38;2.60;;;;;;;33.86;28.31;100162.06;5043840;28;20060;-62
2023/06/16 10:01:13;;;;;;;5.38;2.20;;;;;;;34.13;28.03;100158.56;5046497;28;20091;-62
2023/06/16 10:03:41;;;;;;;4.68;2.40;;;;;;;34.05;26.78;100163.34;5041432;28;20028;-62
2023/06/16 10:06:16;;;;;;;8.43;2.65;;;;;;;34.07;28.35;100152.97;5037067;28;20120;-62
2023/06/16 10:08:42;;;;;;;7.05;3.15;;;;;;;34.28;28.42;100159.31;5030465;28;20025;-61
2023/06/16 10:11:11;;;;;;;4.00;2.38;;;;;;;34.05;26.30;100157.84;5036708;28;20060;-61
2023/06/16 10:13:40;;;;;;;5.90;2.50;;;;;;;33.86;28.58;100159.28;5048588;28;20033;-61
2023/06/16 10:16:11;;;;;;;4.15;2.35;;;;;;;34.05;25.58;100152.31;5049472;28;20036;-61
2023/06/16 10:18:39;;;;;;;4.90;2.55;;;;;;;34.26;26.92;100153.16;5031536;28;20036;-61
2023/06/16 10:21:05;;;;;;;6.00;2.47;;;;;;;34.70;25.47;100150.16;5042504;28;20035;-61
2023/06/16 10:23:30;;;;;;;4.75;3.00;;;;;;;34.35;25.69;100148.34;5029589;28;20393;-62
2023/06/16 10:25:57;;;;;;;4.40;2.58;;;;;;;34.51;27.54;100142.56;5030988;28;20500;-62
2023/06/16 10:28:23;;;;;;;6.85;2.40;;;;;;;34.83;25.90;100153.00;5032429;28;20064;-62
2023/06/16 10:30:49;;;;;;;4.55;2.45;;;;;;;35.07;25.55;100147.03;5048015;28;20492;-62
2023/06/16 10:33:26;;;;;;;13.55;2.75;;;;;;;35.26;25.53;100150.97;5031800;28;20030;-62
2023/06/16 10:36:02;;;;;;;5.10;2.72;;;;;;;35.17;23.19;100133.69;5032800;28;20037;-62
2023/06/16 10:38:37;;;;;;;4.95;2.38;;;;;;;34.24;24.19;100135.94;5030915;28;20420;-62
2023/06/16 10:41:06;;;;;;;5.40;2.72;;;;;;;34.39;25.79;100135.84;5032708;28;20043;-61
2023/06/16 10:43:31;;;;;;;6.57;2.50;;;;;;;34.92;26.74;100140.78;5047314;28;20029;-61
2023/06/16 10:46:20;;;;;;;4.43;2.40;;;;;;;34.78;25.22;100136.16;5041502;28;20025;-62
2023/06/16 10:49:20;;;;;;;4.45;2.50;;;;;;;35.01;24.22;100134.00;5030365;28;20029;-62
2023/06/16 10:51:46;;;;;;;5.47;2.42;;;;;;;35.26;24.88;100129.69;5025608;28;20124;-62
2023/06/16 10:54:34;;;;;;;4.70;2.08;;;;;;;35.39;24.28;100127.00;5030017;28;20037;-62
2023/06/16 10:57:04;;;;;;;6.13;2.60;;;;;;;35.67;24.57;100127.75;5033273;28;20065;-62
2023/06/16 10:59:30;;;;;;;5.55;2.50;;;;;;;35.78;25.60;100123.53;5031950;28;20079;-62
2023/06/16 11:01:57;;;;;;;4.65;2.50;;;;;;;35.94;24.42;100125.06;5044989;28;20495;-62
2023/06/16 11:04:23;;;;;;;6.07;2.40;;;;;;;35.92;24.47;100132.72;5041926;28;20021;-62
2023/06/16 11:07:03;;;;;;;8.93;3.08;;;;;;;35.47;24.47;100107.44;5036742;28;20449;-62
2023/06/16 11:09:30;;;;;;;6.30;2.28;;;;;;;35.42;24.34;100126.59;5037700;28;20025;-62
2023/06/16 11:12:02;;;;;;;10.77;3.10;;;;;;;35.83;26.15;100122.91;5038544;28;20468;-63
2023/06/16 11:14:28;;;;;;;;;;;;;;;36.36;24.40;100120.03;5030368;28;20040;-62
2023/06/16 11:16:55;;;;;;;6.50;2.50;;;;;;;36.57;23.96;100130.94;5040401;28;19912;-62
2023/06/16 11:19:20;;;;;;;4.97;2.35;;;;;;;36.86;23.25;100122.16;5047954;28;20032;-63
2023/06/16 11:21:46;;;;;;;4.38;2.22;;;;;;;36.48;23.47;100120.25;5033125;28;20652;-62
2023/06/16 11:24:12;;;;;;;6.75;2.75;;;;;;;36.59;23.35;100125.16;5039163;28;20056;-63